sensor_id;sensor_type;location;lat;lon;timestamp;pressure;altitude;pressure_sealevel;temperature;humidity
60611;BME280;46439;51.164;13.572;2023-02-28T00:01:29;101452.79;;;1.64;82.90
60611;BME280;46439;51.164;13.572;2023-02-28T00:03:58;101459.52;;;1.68;82.71
60611;BME280;46439;51.164;13.572;2023-02-28T00:06:27;101457.77;;;1.68;82.98
60611;BME280;46439;51.164;13.572;2023-02-28T00:08:55;101460.09;;;1.64;82.93
60611;BME280;46439;51.164;13.572;2023-02-28T00:11:24;101457.89;;;1.59;82.67
60611;BME280;46439;51.164;13.572;2023-02-28T00:13:52;101454.85;;;1.53;82.54
60611;BME280;46439;51.164;13.572;2023-02-28T00:16:22;101450.39;;;1.53;82.43
60611;BME280;46439;51.164;13.572;2023-02-28T00:18:51;101445.61;;;1.53;82.45
60611;BME280;46439;51.164;13.572;2023-02-28T00:21:20;101444.34;;;1.50;82.44
60611;BME280;46439;51.164;13.572;2023-02-28T00:23:49;101443.54;;;1.45;82.11
60611;BME280;46439;51.164;13.572;2023-02-28T00:26:20;101442.91;;;1.44;82.20
60611;BME280;46439;51.164;13.572;2023-02-28T00:28:49;101437.91;;;1.42;82.20
60611;BME280;46439;51.164;13.572;2023-02-28T00:31:20;101437.27;;;1.43;82.20
60611;BME280;46439;51.164;13.572;2023-02-28T00:33:49;101436.40;;;1.43;82.11
60611;BME280;46439;51.164;13.572;2023-02-28T00:36:20;101440.67;;;1.39;82.43
60611;BME280;46439;51.164;13.572;2023-02-28T00:38:48;101435.33;;;1.40;82.21
60611;BME280;46439;51.164;13.572;2023-02-28T00:41:17;101435.77;;;1.41;82.21
60611;BME280;46439;51.164;13.572;2023-02-28T00:43:45;101439.88;;;1.44;82.10
60611;BME280;46439;51.164;13.572;2023-02-28T00:46:14;101439.73;;;1.50;82.31
60611;BME280;46439;51.164;13.572;2023-02-28T00:48:42;101439.63;;;1.59;82.80
60611;BME280;46439;51.164;13.572;2023-02-28T00:51:11;101440.45;;;1.66;82.97
60611;BME280;46439;51.164;13.572;2023-02-28T00:53:40;101438.28;;;1.73;83.09
60611;BME280;46439;51.164;13.572;2023-02-28T00:56:09;101436.98;;;1.81;83.15
60611;BME280;46439;51.164;13.572;2023-02-28T00:58:37;101440.20;;;1.86;83.25
60611;BME280;46439;51.164;13.572;2023-02-28T01:01:06;101439.09;;;1.91;83.10
60611;BME280;46439;51.164;13.572;2023-02-28T01:03:35;101440.08;;;1.95;83.21
60611;BME280;46439;51.164;13.572;2023-02-28T01:06:04;101442.54;;;2.02;83.48
60611;BME280;46439;51.164;13.572;2023-02-28T01:08:33;101440.11;;;2.10;83.62
60611;BME280;46439;51.164;13.572;2023-02-28T01:11:12;101440.38;;;2.18;83.42
60611;BME280;46439;51.164;13.572;2023-02-28T01:13:41;101435.02;;;2.22;83.76
60611;BME280;46439;51.164;13.572;2023-02-28T01:16:09;101437.90;;;2.24;83.77
60611;BME280;46439;51.164;13.572;2023-02-28T01:18:38;101436.19;;;2.26;83.67
60611;BME280;46439;51.164;13.572;2023-02-28T01:21:09;101435.65;;;2.20;83.64
60611;BME280;46439;51.164;13.572;2023-02-28T01:23:38;101431.01;;;2.11;83.25
60611;BME280;46439;51.164;13.572;2023-02-28T01:26:08;101431.36;;;2.05;82.86
60611;BME280;46439;51.164;13.572;2023-02-28T01:28:36;101429.64;;;2.01;82.99
60611;BME280;46439;51.164;13.572;2023-02-28T01:31:05;101430.33;;;2.01;83.15
60611;BME280;46439;51.164;13.572;2023-02-28T01:33:34;101427.34;;;2.04;83.28
60611;BME280;46439;51.164;13.572;2023-02-28T01:36:04;101426.23;;;2.05;83.22
60611;BME280;46439;51.164;13.572;2023-02-28T01:38:34;101428.79;;;2.03;83.24
60611;BME280;46439;51.164;13.572;2023-02-28T01:41:03;101427.66;;;2.04;83.26
60611;BME280;46439;51.164;13.572;2023-02-28T01:43:52;101430.48;;;2.01;83.28
60611;BME280;46439;51.164;13.572;2023-02-28T01:46:21;101427.35;;;2.01;82.94
60611;BME280;46439;51.164;13.572;2023-02-28T01:48:53;101430.02;;;2.00;83.04
60611;BME280;46439;51.164;13.572;2023-02-28T01:51:25;101434.13;;;2.00;83.11
60611;BME280;46439;51.164;13.572;2023-02-28T01:53:58;101432.51;;;2.01;83.52
60611;BME280;46439;51.164;13.572;2023-02-28T01:56:30;101429.98;;;2.01;83.22
60611;BME280;46439;51.164;13.572;2023-02-28T01:59:01;101428.29;;;2.00;83.18
60611;BME280;46439;51.164;13.572;2023-02-28T02:01:31;101428.05;;;1.98;83.14
60611;BME280;46439;51.164;13.572;2023-02-28T02:04:01;101425.92;;;1.98;83.01
60611;BME280;46439;51.164;13.572;2023-02-28T02:06:33;101424.30;;;1.95;83.10
60611;BME280;46439;51.164;13.572;2023-02-28T02:09:01;101420.52;;;1.92;82.80
60611;BME280;46439;51.164;13.572;2023-02-28T02:11:31;101414.90;;;1.88;82.86
60611;BME280;46439;51.164;13.572;2023-02-28T02:14:22;101417.84;;;1.83;82.61
60611;BME280;46439;51.164;13.572;2023-02-28T02:17:07;101418.30;;;1.78;82.36
60611;BME280;46439;51.164;13.572;2023-02-28T02:23:18;101413.90;;;1.75;82.89
60611;BME280;46439;51.164;13.572;2023-02-28T02:25:54;101411.99;;;1.74;83.02
60611;BME280;46439;51.164;13.572;2023-02-28T02:34:43;101409.65;;;1.68;82.70
60611;BME280;46439;51.164;13.572;2023-02-28T02:37:23;101408.20;;;1.59;82.54
60611;BME280;46439;51.164;13.572;2023-02-28T02:39:57;101408.98;;;1.48;82.23
60611;BME280;46439;51.164;13.572;2023-02-28T02:42:32;101406.61;;;1.36;82.07
60611;BME280;46439;51.164;13.572;2023-02-28T02:45:07;101407.41;;;1.25;81.55
60611;BME280;46439;51.164;13.572;2023-02-28T02:47:37;101406.49;;;1.19;81.82
60611;BME280;46439;51.164;13.572;2023-02-28T02:50:11;101406.81;;;1.09;81.36
60611;BME280;46439;51.164;13.572;2023-02-28T02:52:55;101409.29;;;1.06;81.80
60611;BME280;46439;51.164;13.572;2023-02-28T02:55:26;101410.79;;;1.05;81.79
60611;BME280;46439;51.164;13.572;2023-02-28T02:57:57;101409.57;;;1.04;81.48
60611;BME280;46439;51.164;13.572;2023-02-28T03:00:34;101412.48;;;1.06;81.56
60611;BME280;46439;51.164;13.572;2023-02-28T03:03:05;101408.38;;;1.07;82.15
60611;BME280;46439;51.164;13.572;2023-02-28T03:05:41;101413.63;;;1.08;82.15
60611;BME280;46439;51.164;13.572;2023-02-28T03:08:12;101418.58;;;1.08;82.40
60611;BME280;46439;51.164;13.572;2023-02-28T03:10:42;101415.66;;;1.10;82.07
60611;BME280;46439;51.164;13.572;2023-02-28T03:13:33;101417.93;;;1.10;82.24
60611;BME280;46439;51.164;13.572;2023-02-28T03:16:22;101418.99;;;1.04;82.22
60611;BME280;46439;51.164;13.572;2023-02-28T03:19:01;101421.33;;;1.00;82.26
60611;BME280;46439;51.164;13.572;2023-02-28T03:21:36;101421.34;;;0.89;81.79
60611;BME280;46439;51.164;13.572;2023-02-28T03:24:10;101424.79;;;0.74;81.43
60611;BME280;46439;51.164;13.572;2023-02-28T03:26:43;101422.83;;;0.64;81.38
60611;BME280;46439;51.164;13.572;2023-02-28T03:29:18;101419.04;;;0.51;81.19
60611;BME280;46439;51.164;13.572;2023-02-28T03:31:54;101419.33;;;0.42;80.92
60611;BME280;46439;51.164;13.572;2023-02-28T03:34:28;101417.64;;;0.33;80.90
60611;BME280;46439;51.164;13.572;2023-02-28T03:37:01;101416.82;;;0.29;80.79
60611;BME280;46439;51.164;13.572;2023-02-28T03:39:36;101418.06;;;0.25;80.81
60611;BME280;46439;51.164;13.572;2023-02-28T03:42:09;101418.70;;;0.26;80.88
60611;BME280;46439;51.164;13.572;2023-02-28T03:44:41;101419.48;;;0.25;80.95
60611;BME280;46439;51.164;13.572;2023-02-28T03:47:13;101418.75;;;0.26;81.21
60611;BME280;46439;51.164;13.572;2023-02-28T03:49:45;101418.45;;;0.28;81.41
60611;BME280;46439;51.164;13.572;2023-02-28T03:52:16;101419.99;;;0.25;81.49
60611;BME280;46439;51.164;13.572;2023-02-28T03:54:50;101424.80;;;0.21;81.37
60611;BME280;46439;51.164;13.572;2023-02-28T03:57:26;101421.48;;;0.21;81.43
60611;BME280;46439;51.164;13.572;2023-02-28T03:59:59;101427.43;;;0.22;81.25
60611;BME280;46439;51.164;13.572;2023-02-28T04:02:29;101427.59;;;0.22;81.43
60611;BME280;46439;51.164;13.572;2023-02-28T04:04:57;101428.06;;;0.23;81.63
60611;BME280;46439;51.164;13.572;2023-02-28T04:07:28;101433.11;;;0.25;81.78
60611;BME280;46439;51.164;13.572;2023-02-28T04:09:57;101433.96;;;0.26;81.63
60611;BME280;46439;51.164;13.572;2023-02-28T04:12:26;101435.37;;;0.26;81.93
60611;BME280;46439;51.164;13.572;2023-02-28T04:14:54;101440.33;;;0.26;81.69
60611;BME280;46439;51.164;13.572;2023-02-28T04:17:23;101440.45;;;0.27;81.82
60611;BME280;46439;51.164;13.572;2023-02-28T04:19:51;101440.40;;;0.21;81.67
60611;BME280;46439;51.164;13.572;2023-02-28T04:22:19;101443.67;;;0.15;81.68
60611;BME280;46439;51.164;13.572;2023-02-28T04:24:48;101445.41;;;0.13;81.87
60611;BME280;46439;51.164;13.572;2023-02-28T04:27:16;101449.35;;;0.11;81.65
60611;BME280;46439;51.164;13.572;2023-02-28T04:29:45;101450.77;;;0.11;81.70
60611;BME280;46439;51.164;13.572;2023-02-28T04:32:13;101455.01;;;0.11;81.63
60611;BME280;46439;51.164;13.572;2023-02-28T04:34:41;101454.28;;;0.12;81.74
60611;BME280;46439;51.164;13.572;2023-02-28T04:37:10;101449.80;;;0.13;81.75
60611;BME280;46439;51.164;13.572;2023-02-28T04:39:39;101452.65;;;0.13;81.80
60611;BME280;46439;51.164;13.572;2023-02-28T04:42:08;101450.44;;;0.11;81.84
60611;BME280;46439;51.164;13.572;2023-02-28T04:44:36;101454.20;;;0.10;81.65
60611;BME280;46439;51.164;13.572;2023-02-28T04:47:05;101453.64;;;0.10;81.65
60611;BME280;46439;51.164;13.572;2023-02-28T04:49:34;101453.48;;;0.10;81.67
60611;BME280;46439;51.164;13.572;2023-02-28T04:52:03;101450.87;;;0.09;81.96
60611;BME280;46439;51.164;13.572;2023-02-28T04:54:32;101452.48;;;0.06;81.66
60611;BME280;46439;51.164;13.572;2023-02-28T04:57:00;101453.02;;;-0.02;81.53
60611;BME280;46439;51.164;13.572;2023-02-28T04:59:29;101449.05;;;-0.12;81.42
60611;BME280;46439;51.164;13.572;2023-02-28T05:01:58;101455.04;;;-0.19;81.17
60611;BME280;46439;51.164;13.572;2023-02-28T05:04:26;101450.70;;;-0.25;81.29
60611;BME280;46439;51.164;13.572;2023-02-28T05:06:55;101451.91;;;-0.24;81.22
60611;BME280;46439;51.164;13.572;2023-02-28T05:09:23;101451.67;;;-0.23;81.19
60611;BME280;46439;51.164;13.572;2023-02-28T05:11:52;101449.43;;;-0.20;81.40
60611;BME280;46439;51.164;13.572;2023-02-28T05:14:20;101448.61;;;-0.18;81.37
60611;BME280;46439;51.164;13.572;2023-02-28T05:16:49;101455.86;;;-0.17;81.53
60611;BME280;46439;51.164;13.572;2023-02-28T05:19:17;101459.55;;;-0.17;81.41
60611;BME280;46439;51.164;13.572;2023-02-28T05:21:52;101461.36;;;-0.22;81.49
60611;BME280;46439;51.164;13.572;2023-02-28T05:24:21;101458.44;;;-0.27;81.46
60611;BME280;46439;51.164;13.572;2023-02-28T05:26:53;101456.55;;;-0.40;81.09
60611;BME280;46439;51.164;13.572;2023-02-28T05:29:22;101459.79;;;-0.48;80.94
60611;BME280;46439;51.164;13.572;2023-02-28T05:31:51;101459.88;;;-0.50;80.86
60611;BME280;46439;51.164;13.572;2023-02-28T05:34:19;101462.67;;;-0.50;81.10
60611;BME280;46439;51.164;13.572;2023-02-28T05:36:48;101459.73;;;-0.48;81.13
60611;BME280;46439;51.164;13.572;2023-02-28T05:39:17;101460.25;;;-0.51;81.08
60611;BME280;46439;51.164;13.572;2023-02-28T05:41:45;101461.13;;;-0.51;81.27
60611;BME280;46439;51.164;13.572;2023-02-28T05:44:14;101465.36;;;-0.51;81.08
60611;BME280;46439;51.164;13.572;2023-02-28T05:46:43;101468.52;;;-0.50;81.43
60611;BME280;46439;51.164;13.572;2023-02-28T05:49:11;101472.38;;;-0.49;81.34
60611;BME280;46439;51.164;13.572;2023-02-28T05:51:40;101472.40;;;-0.50;81.25
60611;BME280;46439;51.164;13.572;2023-02-28T05:54:09;101474.20;;;-0.51;81.21
60611;BME280;46439;51.164;13.572;2023-02-28T05:56:37;101472.51;;;-0.56;81.27
60611;BME280;46439;51.164;13.572;2023-02-28T05:59:08;101477.05;;;-0.59;81.30
60611;BME280;46439;51.164;13.572;2023-02-28T06:01:38;101476.44;;;-0.61;80.99
60611;BME280;46439;51.164;13.572;2023-02-28T06:04:09;101475.80;;;-0.59;81.37
60611;BME280;46439;51.164;13.572;2023-02-28T06:06:38;101484.73;;;-0.56;81.28
60611;BME280;46439;51.164;13.572;2023-02-28T06:09:07;101483.10;;;-0.56;81.39
60611;BME280;46439;51.164;13.572;2023-02-28T06:11:36;101488.35;;;-0.59;81.30
60611;BME280;46439;51.164;13.572;2023-02-28T06:14:05;101491.70;;;-0.58;81.24
60611;BME280;46439;51.164;13.572;2023-02-28T06:16:35;101496.48;;;-0.66;81.09
60611;BME280;46439;51.164;13.572;2023-02-28T06:19:05;101499.02;;;-0.76;80.81
60611;BME280;46439;51.164;13.572;2023-02-28T06:21:33;101504.34;;;-0.84;80.59
60611;BME280;46439;51.164;13.572;2023-02-28T06:24:03;101506.62;;;-0.87;80.72
60611;BME280;46439;51.164;13.572;2023-02-28T06:26:32;101508.17;;;-0.91;80.63
60611;BME280;46439;51.164;13.572;2023-02-28T06:29:00;101508.13;;;-0.90;80.71
60611;BME280;46439;51.164;13.572;2023-02-28T06:31:29;101511.39;;;-0.88;80.55
60611;BME280;46439;51.164;13.572;2023-02-28T06:33:58;101515.90;;;-0.90;80.73
60611;BME280;46439;51.164;13.572;2023-02-28T06:36:26;101518.69;;;-0.97;80.54
60611;BME280;46439;51.164;13.572;2023-02-28T06:38:56;101515.60;;;-1.00;80.60
60611;BME280;46439;51.164;13.572;2023-02-28T06:41:26;101521.85;;;-0.97;80.71
60611;BME280;46439;51.164;13.572;2023-02-28T06:43:55;101526.20;;;-0.91;80.73
60611;BME280;46439;51.164;13.572;2023-02-28T06:46:24;101526.62;;;-0.84;80.94
60611;BME280;46439;51.164;13.572;2023-02-28T06:48:52;101528.64;;;-0.78;81.09
60611;BME280;46439;51.164;13.572;2023-02-28T06:51:22;101529.78;;;-0.76;81.14
60611;BME280;46439;51.164;13.572;2023-02-28T06:53:52;101537.20;;;-0.75;81.38
60611;BME280;46439;51.164;13.572;2023-02-28T06:56:21;101537.77;;;-0.81;81.10
60611;BME280;46439;51.164;13.572;2023-02-28T06:58:50;101540.92;;;-0.92;80.86
60611;BME280;46439;51.164;13.572;2023-02-28T07:01:21;101544.80;;;-1.09;80.56
60611;BME280;46439;51.164;13.572;2023-02-28T07:03:52;101544.61;;;-1.17;80.43
60611;BME280;46439;51.164;13.572;2023-02-28T07:06:21;101545.98;;;-1.16;80.28
60611;BME280;46439;51.164;13.572;2023-02-28T07:08:51;101547.28;;;-1.09;80.45
60611;BME280;46439;51.164;13.572;2023-02-28T07:11:25;101547.58;;;-0.99;80.65
60611;BME280;46439;51.164;13.572;2023-02-28T07:13:54;101546.48;;;-0.90;80.79
60611;BME280;46439;51.164;13.572;2023-02-28T07:16:24;101550.59;;;-0.79;81.18
60611;BME280;46439;51.164;13.572;2023-02-28T07:18:55;101551.77;;;-0.73;81.36
60611;BME280;46439;51.164;13.572;2023-02-28T07:21:24;101550.42;;;-0.67;81.33
60611;BME280;46439;51.164;13.572;2023-02-28T07:23:52;101550.27;;;-0.59;81.51
60611;BME280;46439;51.164;13.572;2023-02-28T07:26:21;101548.34;;;-0.47;81.70
60611;BME280;46439;51.164;13.572;2023-02-28T07:28:50;101549.88;;;-0.38;81.78
60611;BME280;46439;51.164;13.572;2023-02-28T07:31:19;101553.31;;;-0.13;82.10
60611;BME280;46439;51.164;13.572;2023-02-28T07:33:48;101550.52;;;0.17;82.54
60611;BME280;46439;51.164;13.572;2023-02-28T07:36:18;101552.44;;;0.33;83.15
60611;BME280;46439;51.164;13.572;2023-02-28T07:38:49;101555.14;;;0.35;83.05
60611;BME280;46439;51.164;13.572;2023-02-28T07:41:21;101558.70;;;0.35;82.69
60611;BME280;46439;51.164;13.572;2023-02-28T07:43:52;101560.17;;;0.37;82.30
60611;BME280;46439;51.164;13.572;2023-02-28T07:46:21;101561.77;;;0.45;82.13
60611;BME280;46439;51.164;13.572;2023-02-28T07:48:49;101559.48;;;0.52;82.28
60611;BME280;46439;51.164;13.572;2023-02-28T07:51:18;101557.29;;;0.57;82.39
60611;BME280;46439;51.164;13.572;2023-02-28T07:53:46;101562.31;;;0.67;82.45
60611;BME280;46439;51.164;13.572;2023-02-28T07:56:15;101561.93;;;0.74;82.86
60611;BME280;46439;51.164;13.572;2023-02-28T07:58:43;101563.09;;;0.79;82.88
60611;BME280;46439;51.164;13.572;2023-02-28T08:01:13;101559.02;;;0.90;82.94
60611;BME280;46439;51.164;13.572;2023-02-28T08:03:41;101563.06;;;0.98;82.82
60611;BME280;46439;51.164;13.572;2023-02-28T08:06:17;101562.18;;;1.01;83.32
60611;BME280;46439;51.164;13.572;2023-02-28T08:08:46;101561.97;;;1.09;83.34
60611;BME280;46439;51.164;13.572;2023-02-28T08:11:15;101563.14;;;1.17;83.24
60611;BME280;46439;51.164;13.572;2023-02-28T08:13:44;101566.41;;;1.23;83.04
60611;BME280;46439;51.164;13.572;2023-02-28T08:16:14;101564.17;;;1.28;83.13
60611;BME280;46439;51.164;13.572;2023-02-28T08:18:50;101563.81;;;1.35;83.29
60611;BME280;46439;51.164;13.572;2023-02-28T08:21:19;101559.32;;;1.40;83.41
60611;BME280;46439;51.164;13.572;2023-02-28T08:23:49;101561.65;;;1.46;83.57
60611;BME280;46439;51.164;13.572;2023-02-28T08:26:19;101556.80;;;1.57;83.38
60611;BME280;46439;51.164;13.572;2023-02-28T08:28:48;101556.70;;;1.66;83.59
60611;BME280;46439;51.164;13.572;2023-02-28T08:31:18;101557.42;;;1.76;83.62
60611;BME280;46439;51.164;13.572;2023-02-28T08:33:46;101555.54;;;1.84;83.45
60611;BME280;46439;51.164;13.572;2023-02-28T08:36:18;101556.86;;;1.90;83.62
60611;BME280;46439;51.164;13.572;2023-02-28T08:38:47;101557.42;;;1.99;83.61
60611;BME280;46439;51.164;13.572;2023-02-28T08:41:16;101559.98;;;2.07;83.76
60611;BME280;46439;51.164;13.572;2023-02-28T08:43:44;101557.05;;;2.09;83.82
60611;BME280;46439;51.164;13.572;2023-02-28T08:46:14;101561.72;;;2.08;83.69
60611;BME280;46439;51.164;13.572;2023-02-28T08:48:43;101565.96;;;2.02;83.02
60611;BME280;46439;51.164;13.572;2023-02-28T08:51:14;101566.97;;;1.97;82.74
60611;BME280;46439;51.164;13.572;2023-02-28T08:53:46;101574.13;;;1.96;82.69
60611;BME280;46439;51.164;13.572;2023-02-28T08:56:18;101574.80;;;1.96;82.54
60611;BME280;46439;51.164;13.572;2023-02-28T08:58:47;101572.16;;;1.99;82.58
60611;BME280;46439;51.164;13.572;2023-02-28T09:01:17;101572.52;;;2.05;82.77
60611;BME280;46439;51.164;13.572;2023-02-28T09:03:47;101568.28;;;2.11;82.80
60611;BME280;46439;51.164;13.572;2023-02-28T09:06:18;101570.98;;;2.17;82.92
60611;BME280;46439;51.164;13.572;2023-02-28T09:08:47;101570.73;;;2.18;82.93
60611;BME280;46439;51.164;13.572;2023-02-28T09:11:16;101564.52;;;2.28;83.03
60611;BME280;46439;51.164;13.572;2023-02-28T09:13:44;101559.01;;;2.34;83.01
60611;BME280;46439;51.164;13.572;2023-02-28T09:16:14;101557.05;;;2.35;83.11
60611;BME280;46439;51.164;13.572;2023-02-28T09:18:44;101556.50;;;2.32;82.72
60611;BME280;46439;51.164;13.572;2023-02-28T09:21:14;101557.92;;;2.28;82.66
60611;BME280;46439;51.164;13.572;2023-02-28T09:23:44;101564.41;;;2.27;82.57
60611;BME280;46439;51.164;13.572;2023-02-28T09:26:17;101562.35;;;2.29;82.64
60611;BME280;46439;51.164;13.572;2023-02-28T09:28:51;101558.74;;;2.26;82.67
60611;BME280;46439;51.164;13.572;2023-02-28T09:31:35;101558.49;;;2.34;82.93
60611;BME280;46439;51.164;13.572;2023-02-28T09:34:05;101559.55;;;2.44;82.74
60611;BME280;46439;51.164;13.572;2023-02-28T09:36:34;101557.34;;;2.51;82.75
60611;BME280;46439;51.164;13.572;2023-02-28T09:39:05;101558.29;;;2.60;83.28
60611;BME280;46439;51.164;13.572;2023-02-28T09:41:39;101556.27;;;2.64;83.01
60611;BME280;46439;51.164;13.572;2023-02-28T09:44:20;101556.20;;;2.65;82.96
60611;BME280;46439;51.164;13.572;2023-02-28T09:46:53;101555.05;;;2.63;82.80
60611;BME280;46439;51.164;13.572;2023-02-28T09:49:28;101552.21;;;2.61;82.55
60611;BME280;46439;51.164;13.572;2023-02-28T09:52:03;101549.30;;;2.55;82.21
60611;BME280;46439;51.164;13.572;2023-02-28T09:54:31;101549.80;;;2.56;82.21
60611;BME280;46439;51.164;13.572;2023-02-28T09:57:04;101547.84;;;2.59;82.52
60611;BME280;46439;51.164;13.572;2023-02-28T09:59:42;101555.38;;;2.58;82.24
60611;BME280;46439;51.164;13.572;2023-02-28T10:02:24;101554.90;;;2.54;82.19
60611;BME280;46439;51.164;13.572;2023-02-28T10:05:06;101552.02;;;2.55;82.28
60611;BME280;46439;51.164;13.572;2023-02-28T10:07:48;101555.02;;;2.61;82.41
60611;BME280;46439;51.164;13.572;2023-02-28T10:10:26;101557.47;;;2.68;82.58
60611;BME280;46439;51.164;13.572;2023-02-28T10:12:59;101560.27;;;2.72;82.21
60611;BME280;46439;51.164;13.572;2023-02-28T10:15:31;101555.86;;;2.78;82.49
60611;BME280;46439;51.164;13.572;2023-02-28T10:18:00;101553.88;;;2.81;82.52
60611;BME280;46439;51.164;13.572;2023-02-28T10:20:34;101557.14;;;2.86;82.49
60611;BME280;46439;51.164;13.572;2023-02-28T10:23:11;101559.91;;;2.90;82.28
60611;BME280;46439;51.164;13.572;2023-02-28T10:25:41;101561.50;;;2.91;82.42
60611;BME280;46439;51.164;13.572;2023-02-28T10:28:17;101560.48;;;2.90;82.37
60611;BME280;46439;51.164;13.572;2023-02-28T10:30:48;101560.30;;;2.89;82.40
60611;BME280;46439;51.164;13.572;2023-02-28T10:33:29;101562.29;;;2.86;82.22
60611;BME280;46439;51.164;13.572;2023-02-28T10:35:59;101562.06;;;2.81;82.20
60611;BME280;46439;51.164;13.572;2023-02-28T10:38:33;101561.33;;;2.81;82.09
60611;BME280;46439;51.164;13.572;2023-02-28T10:41:10;101560.18;;;2.80;82.21
60611;BME280;46439;51.164;13.572;2023-02-28T10:43:40;101558.09;;;2.82;82.07
60611;BME280;46439;51.164;13.572;2023-02-28T10:46:15;101554.16;;;2.88;82.04
60611;BME280;46439;51.164;13.572;2023-02-28T10:49:03;101545.41;;;2.98;81.91
60611;BME280;46439;51.164;13.572;2023-02-28T10:51:40;101547.35;;;3.04;82.40
60611;BME280;46439;51.164;13.572;2023-02-28T10:54:17;101549.34;;;3.04;82.17
60611;BME280;46439;51.164;13.572;2023-02-28T10:56:46;101546.84;;;3.04;82.22
60611;BME280;46439;51.164;13.572;2023-02-28T10:59:33;101546.70;;;3.06;81.98
60611;BME280;46439;51.164;13.572;2023-02-28T11:02:07;101544.73;;;3.10;82.06
60611;BME280;46439;51.164;13.572;2023-02-28T11:04:51;101545.41;;;3.49;83.01
60611;BME280;46439;51.164;13.572;2023-02-28T11:07:21;101540.64;;;3.57;83.25
60611;BME280;46439;51.164;13.572;2023-02-28T11:09:51;101539.45;;;3.50;83.02
60611;BME280;46439;51.164;13.572;2023-02-28T11:12:28;101539.33;;;3.49;82.52
60611;BME280;46439;51.164;13.572;2023-02-28T11:14:59;101533.73;;;3.42;82.18
60611;BME280;46439;51.164;13.572;2023-02-28T11:17:31;101531.29;;;3.32;81.78
60611;BME280;46439;51.164;13.572;2023-02-28T11:20:03;101530.05;;;3.29;81.66
60611;BME280;46439;51.164;13.572;2023-02-28T11:22:35;101523.53;;;3.34;81.84
60611;BME280;46439;51.164;13.572;2023-02-28T11:25:09;101524.38;;;3.35;81.99
60611;BME280;46439;51.164;13.572;2023-02-28T11:27:49;101526.59;;;3.33;81.92
60611;BME280;46439;51.164;13.572;2023-02-28T11:30:31;101522.91;;;3.35;81.86
60611;BME280;46439;51.164;13.572;2023-02-28T11:33:00;101519.73;;;3.38;81.67
60611;BME280;46439;51.164;13.572;2023-02-28T11:35:31;101519.20;;;3.35;81.84
60611;BME280;46439;51.164;13.572;2023-02-28T11:38:02;101515.95;;;3.24;81.28
60611;BME280;46439;51.164;13.572;2023-02-28T11:40:41;101511.55;;;3.17;81.39
60611;BME280;46439;51.164;13.572;2023-02-28T11:43:25;101511.16;;;3.18;81.32
60611;BME280;46439;51.164;13.572;2023-02-28T11:46:09;101509.04;;;3.26;81.58
60611;BME280;46439;51.164;13.572;2023-02-28T11:48:49;101508.98;;;3.42;81.87
60611;BME280;46439;51.164;13.572;2023-02-28T11:51:23;101499.29;;;3.55;81.90
60611;BME280;46439;51.164;13.572;2023-02-28T11:54:08;101501.73;;;3.64;82.22
60611;BME280;46439;51.164;13.572;2023-02-28T11:56:46;101498.40;;;3.77;82.33
60611;BME280;46439;51.164;13.572;2023-02-28T11:59:32;101502.27;;;3.81;82.24
60611;BME280;46439;51.164;13.572;2023-02-28T12:02:16;101495.97;;;3.82;82.03
60611;BME280;46439;51.164;13.572;2023-02-28T12:04:56;101490.69;;;3.87;82.04
60611;BME280;46439;51.164;13.572;2023-02-28T12:07:34;101491.81;;;3.97;81.91
60611;BME280;46439;51.164;13.572;2023-02-28T12:10:16;101491.10;;;4.08;82.25
60611;BME280;46439;51.164;13.572;2023-02-28T12:12:55;101490.27;;;4.21;82.50
60611;BME280;46439;51.164;13.572;2023-02-28T12:15:47;101493.93;;;4.31;82.42
60611;BME280;46439;51.164;13.572;2023-02-28T12:18:29;101491.51;;;4.33;82.30
60611;BME280;46439;51.164;13.572;2023-02-28T12:21:08;101492.88;;;4.33;82.32
60611;BME280;46439;51.164;13.572;2023-02-28T12:24:00;101489.10;;;4.31;82.10
60611;BME280;46439;51.164;13.572;2023-02-28T12:26:38;101490.80;;;4.24;81.99
60611;BME280;46439;51.164;13.572;2023-02-28T12:29:14;101491.02;;;4.20;81.79
60611;BME280;46439;51.164;13.572;2023-02-28T12:31:49;101486.46;;;4.22;81.95
60611;BME280;46439;51.164;13.572;2023-02-28T12:34:21;101479.86;;;4.19;81.72
60611;BME280;46439;51.164;13.572;2023-02-28T12:36:53;101480.10;;;4.21;81.71
60611;BME280;46439;51.164;13.572;2023-02-28T12:39:28;101481.35;;;4.24;81.85
60611;BME280;46439;51.164;13.572;2023-02-28T12:42:03;101482.31;;;4.26;81.74
60611;BME280;46439;51.164;13.572;2023-02-28T12:44:39;101480.83;;;4.24;81.92
60611;BME280;46439;51.164;13.572;2023-02-28T12:47:13;101480.56;;;4.20;81.73
60611;BME280;46439;51.164;13.572;2023-02-28T12:49:48;101482.08;;;4.18;81.62
60611;BME280;46439;51.164;13.572;2023-02-28T12:52:22;101480.34;;;4.18;81.66
60611;BME280;46439;51.164;13.572;2023-02-28T12:54:56;101484.21;;;4.13;81.44
60611;BME280;46439;51.164;13.572;2023-02-28T12:57:34;101481.00;;;4.10;81.56
60611;BME280;46439;51.164;13.572;2023-02-28T13:00:13;101478.95;;;4.06;81.43
60611;BME280;46439;51.164;13.572;2023-02-28T13:03:04;101473.41;;;4.03;81.45
60611;BME280;46439;51.164;13.572;2023-02-28T13:05:58;101472.05;;;4.02;81.22
60611;BME280;46439;51.164;13.572;2023-02-28T13:11:45;101461.87;;;4.06;81.39
60611;BME280;46439;51.164;13.572;2023-02-28T13:14:27;101463.67;;;4.11;81.51
60611;BME280;46439;51.164;13.572;2023-02-28T13:17:10;101464.40;;;4.11;81.61
60611;BME280;46439;51.164;13.572;2023-02-28T13:19:43;101469.52;;;4.12;81.40
60611;BME280;46439;51.164;13.572;2023-02-28T13:22:21;101469.71;;;4.09;81.45
60611;BME280;46439;51.164;13.572;2023-02-28T13:25:04;101466.42;;;4.01;81.35
60611;BME280;46439;51.164;13.572;2023-02-28T13:27:54;101464.27;;;3.99;81.20